createdAt,value
2017-06-14T22:00:10.582Z,61.30
2017-06-14T22:02:39.662Z,61.60
2017-06-14T22:05:08.731Z,61.60
2017-06-14T22:07:37.804Z,61.70
2017-06-14T22:10:06.842Z,61.60
2017-06-14T22:12:35.912Z,61.80
2017-06-14T22:15:05.363Z,62.00
2017-06-14T22:17:34.427Z,62.10
2017-06-14T22:20:03.537Z,62.20
2017-06-14T22:22:32.591Z,62.40
2017-06-14T22:25:02.035Z,62.20
2017-06-14T22:27:31.371Z,62.00
2017-06-14T22:30:00.402Z,62.00
2017-06-14T22:32:29.593Z,62.00
2017-06-14T22:34:58.644Z,62.00
2017-06-14T22:37:27.709Z,62.00
2017-06-14T22:39:56.767Z,62.00
2017-06-14T22:42:25.823Z,62.30
2017-06-14T22:44:54.887Z,62.50
2017-06-14T22:47:23.949Z,62.50
2017-06-14T22:49:53.049Z,62.60
2017-06-14T22:52:22.099Z,62.90
2017-06-14T22:54:51.171Z,63.10
2017-06-14T22:57:20.330Z,63.20
2017-06-14T22:59:49.404Z,63.40
2017-06-14T23:02:18.464Z,63.50
2017-06-14T23:04:47.549Z,63.60
2017-06-14T23:07:16.604Z,63.80
2017-06-14T23:09:45.675Z,64.00
2017-06-14T23:12:14.743Z,64.20
2017-06-14T23:14:43.955Z,64.50
2017-06-14T23:17:13.020Z,64.80
2017-06-14T23:19:42.112Z,64.90
2017-06-14T23:22:11.237Z,65.20
2017-06-14T23:24:40.306Z,65.50
2017-06-14T23:27:09.373Z,66.40
2017-06-14T23:29:37.666Z,65.70
2017-06-14T23:32:06.739Z,66.10
2017-06-14T23:34:35.798Z,66.30
2017-06-14T23:37:04.880Z,66.60
2017-06-14T23:39:34.132Z,66.90
2017-06-14T23:42:03.184Z,67.10
2017-06-14T23:44:32.251Z,67.40
2017-06-14T23:47:01.299Z,67.60
2017-06-14T23:49:29.610Z,67.60
2017-06-14T23:51:58.843Z,68.10
2017-06-14T23:54:27.919Z,68.40
2017-06-14T23:56:57.445Z,68.70
2017-06-14T23:59:26.531Z,68.90
